createdAt,value
2022-08-07T00:01:43.115Z,98272.91
2022-08-07T00:03:51.655Z,98275.34
2022-08-07T00:06:18.524Z,98274.00
2022-08-07T00:08:56.062Z,98268.22
2022-08-07T00:11:30.036Z,98270.84
2022-08-07T00:14:00.097Z,98268.56
2022-08-07T00:16:28.970Z,98263.88
2022-08-07T00:18:55.774Z,98270.84
2022-08-07T00:21:57.027Z,98281.34
2022-08-07T00:24:10.336Z,98274.59
2022-08-07T00:26:49.127Z,98275.34
2022-08-07T00:29:31.361Z,98276.06
2022-08-07T00:31:59.763Z,98278.09
2022-08-07T00:34:27.221Z,98287.59
2022-08-07T00:36:56.561Z,98289.66
2022-08-07T00:39:23.404Z,98294.56
2022-08-07T00:42:01.685Z,98290.84
2022-08-07T00:44:31.511Z,98288.66
2022-08-07T00:47:00.522Z,98288.41
2022-08-07T00:50:20.696Z,98290.19
2022-08-07T00:52:17.488Z,98287.03
2022-08-07T00:54:44.682Z,98277.31
2022-08-07T00:57:13.162Z,98282.69
2022-08-07T00:59:39.967Z,98274.41
2022-08-07T01:02:13.938Z,98279.00
2022-08-07T01:04:47.126Z,98271.56
2022-08-07T01:07:15.200Z,98268.66
2022-08-07T01:10:06.350Z,98263.47
2022-08-07T01:12:30.944Z,98261.66
2022-08-07T01:15:01.250Z,98257.66
2022-08-07T01:17:30.529Z,98266.88
2022-08-07T01:20:04.791Z,98265.88
2022-08-07T01:22:31.852Z,98264.44
2022-08-07T01:24:59.378Z,98264.69
2022-08-07T01:27:32.044Z,98268.78
2022-08-07T01:29:59.811Z,98263.09
2022-08-07T01:32:27.823Z,98261.00
2022-08-07T01:34:56.178Z,98268.00
2022-08-07T01:37:24.519Z,98281.63
2022-08-07T01:39:52.259Z,98275.63
2022-08-07T01:42:38.473Z,98282.00
2022-08-07T01:45:15.860Z,98274.72
2022-08-07T01:48:19.101Z,98273.66
2022-08-07T01:50:32.689Z,98273.03
2022-08-07T01:53:02.151Z,98275.81
2022-08-07T01:55:44.662Z,98268.13
2022-08-07T01:58:29.525Z,98266.94
2022-08-07T02:01:09.512Z,98264.66
2022-08-07T02:03:58.197Z,98259.38
2022-08-07T02:06:31.557Z,98267.22
2022-08-07T02:09:03.656Z,98262.16
2022-08-07T02:12:02.806Z,98259.03
2022-08-07T02:14:36.086Z,98260.47
2022-08-07T02:17:10.045Z,98252.88
2022-08-07T02:20:07.241Z,98251.78
2022-08-07T02:22:28.099Z,98257.31
2022-08-07T02:24:56.514Z,98246.00
2022-08-07T02:27:34.114Z,98241.91
2022-08-07T02:30:07.013Z,98245.38
2022-08-07T02:32:36.246Z,98246.25
2022-08-07T02:35:09.210Z,98241.44
2022-08-07T02:37:44.111Z,98240.13
2022-08-07T02:40:30.684Z,98230.00
2022-08-07T02:43:00.462Z,98229.88
2022-08-07T02:46:00.743Z,98227.72
2022-08-07T02:48:17.415Z,98235.41
2022-08-07T02:50:48.392Z,98233.50
2022-08-07T02:53:31.311Z,98231.63
2022-08-07T02:56:11.335Z,98226.91
2022-08-07T02:58:47.345Z,98219.53
2022-08-07T03:01:18.571Z,98207.91
2022-08-07T03:03:49.760Z,98210.06
2022-08-07T03:06:26.247Z,98209.59
2022-08-07T03:09:01.986Z,98215.59
2022-08-07T03:11:29.634Z,98217.38
2022-08-07T03:14:02.075Z,98214.88
2022-08-07T03:16:30.496Z,98214.00
2022-08-07T03:18:59.215Z,98210.28
2022-08-07T03:21:27.794Z,98211.91
2022-08-07T03:24:18.089Z,98204.44
2022-08-07T03:26:57.756Z,98209.81
2022-08-07T03:29:30.017Z,98207.56
2022-08-07T03:31:57.955Z,98202.19
2022-08-07T03:34:27.946Z,98207.47
2022-08-07T03:36:57.381Z,98204.44
2022-08-07T03:39:59.144Z,98197.13
2022-08-07T03:42:16.228Z,98203.38
2022-08-07T03:44:53.190Z,98203.97
2022-08-07T03:47:22.793Z,98203.50
2022-08-07T03:49:52.235Z,98207.09
2022-08-07T03:52:26.374Z,98203.63
2022-08-07T03:55:06.564Z,98207.72
2022-08-07T03:58:33.134Z,98210.34
2022-08-07T04:00:29.378Z,98199.16
2022-08-07T04:02:59.590Z,98204.81
2022-08-07T04:05:39.769Z,98200.75
2022-08-07T04:08:11.029Z,98207.09
2022-08-07T04:10:42.197Z,98203.03
2022-08-07T04:13:15.276Z,98202.19
2022-08-07T04:15:43.870Z,98204.69
2022-08-07T04:18:58.580Z,98205.88
2022-08-07T04:21:01.485Z,98211.53
2022-08-07T04:23:43.612Z,98205.41
2022-08-07T04:26:21.837Z,98208.19
2022-08-07T04:28:48.894Z,98211.66
2022-08-07T04:31:19.984Z,98209.03
2022-08-07T04:34:03.086Z,98213.09
2022-08-07T04:36:29.780Z,98210.22
2022-08-07T04:38:56.652Z,98220.09
2022-08-07T04:41:25.025Z,98211.19
2022-08-07T04:44:12.716Z,98210.00
2022-08-07T04:47:04.787Z,98213.50
2022-08-07T04:50:22.284Z,98214.34
2022-08-07T04:54:05.035Z,98211.13
2022-08-07T04:58:12.004Z,98216.69
2022-08-07T05:00:18.968Z,98212.13
2022-08-07T05:03:16.855Z,98217.41
2022-08-07T05:06:19.448Z,98218.13
2022-08-07T05:09:08.147Z,98219.84
2022-08-07T05:11:57.315Z,98215.56
2022-08-07T05:14:55.290Z,98218.47
2022-08-07T05:17:50.861Z,98213.19
2022-08-07T05:20:17.879Z,98220.03
2022-08-07T05:22:47.767Z,98218.09
2022-08-07T05:25:26.126Z,98216.19
2022-08-07T05:28:20.305Z,98207.91
2022-08-07T05:30:52.104Z,98209.47
2022-08-07T05:33:20.789Z,98214.66
2022-08-07T05:35:50.891Z,98212.84
2022-08-07T05:39:01.265Z,98224.53
2022-08-07T05:41:14.318Z,98211.28
2022-08-07T05:44:12.268Z,98217.06
2022-08-07T05:46:38.373Z,98224.75
2022-08-07T05:49:12.594Z,98225.72
2022-08-07T05:51:46.660Z,98223.25
2022-08-07T05:54:31.564Z,98220.81
2022-08-07T05:57:03.872Z,98224.44
2022-08-07T05:59:42.720Z,98226.25
2022-08-07T06:02:28.469Z,98232.41
2022-08-07T06:04:59.463Z,98227.44
2022-08-07T06:08:13.570Z,98224.22
2022-08-07T06:10:15.307Z,98223.97
2022-08-07T06:12:42.558Z,98226.25
2022-08-07T06:15:15.243Z,98227.09
2022-08-07T06:17:50.664Z,98233.34
2022-08-07T06:20:31.817Z,98226.63
2022-08-07T06:23:04.106Z,98223.00
2022-08-07T06:25:54.873Z,98234.31
2022-08-07T06:28:27.930Z,98228.91
2022-08-07T06:30:56.119Z,98232.66
2022-08-07T06:33:22.923Z,98224.09
2022-08-07T06:36:12.796Z,98224.81
2022-08-07T06:38:36.649Z,98221.34
2022-08-07T06:41:12.945Z,98222.91
2022-08-07T06:43:46.593Z,98222.31
2022-08-07T06:46:35.052Z,98231.78
2022-08-07T06:49:03.956Z,98234.44
2022-08-07T06:51:34.917Z,98227.00
2022-08-07T06:55:27.436Z,98227.13
2022-08-07T06:56:52.270Z,98233.00
2022-08-07T07:00:11.707Z,98234.81
2022-08-07T07:02:49.321Z,98237.00
2022-08-07T07:05:07.752Z,98229.00
2022-08-07T07:07:59.379Z,98223.13
2022-08-07T07:10:57.047Z,98225.63
2022-08-07T07:13:56.657Z,98228.28
2022-08-07T07:16:22.065Z,98227.53
2022-08-07T07:18:54.325Z,98230.19
2022-08-07T07:21:26.970Z,98221.75
2022-08-07T07:24:12.631Z,98226.31
2022-08-07T07:26:51.663Z,98222.22
2022-08-07T07:29:56.456Z,98217.34
2022-08-07T07:32:13.825Z,98216.81
2022-08-07T07:34:45.403Z,98214.03
2022-08-07T07:37:43.973Z,98214.66
2022-08-07T07:40:10.234Z,98209.59
2022-08-07T07:42:43.554Z,98211.22
2022-08-07T07:45:24.468Z,98215.03
2022-08-07T07:48:11.121Z,98207.50
2022-08-07T07:50:40.153Z,98209.13
2022-08-07T07:53:20.071Z,98214.28
2022-08-07T07:55:57.558Z,98209.91
2022-08-07T07:58:29.473Z,98214.31
2022-08-07T08:00:58.709Z,98211.72
2022-08-07T08:04:06.292Z,98214.09
2022-08-07T08:06:17.634Z,98217.00
2022-08-07T08:08:45.046Z,98208.69
2022-08-07T08:11:18.046Z,98205.59
2022-08-07T08:14:02.365Z,98205.09
2022-08-07T08:16:39.569Z,98206.44
2022-08-07T08:20:18.885Z,98212.59
2022-08-07T08:22:32.700Z,98204.34
2022-08-07T08:25:33.024Z,98210.13
2022-08-07T08:28:12.552Z,98208.78
2022-08-07T08:30:50.987Z,98209.41
2022-08-07T08:33:24.947Z,98207.31
2022-08-07T08:35:57.560Z,98208.75
2022-08-07T08:38:34.248Z,98214.31
2022-08-07T08:41:17.734Z,98216.03
2022-08-07T08:44:01.743Z,98209.25
2022-08-07T08:46:44.916Z,98217.28
2022-08-07T08:49:32.684Z,98213.25
2022-08-07T08:52:13.815Z,98208.06
2022-08-07T08:55:21.284Z,98207.22
2022-08-07T08:58:24.840Z,98202.84
2022-08-07T09:01:15.008Z,98201.50
2022-08-07T09:03:56.685Z,98207.28
2022-08-07T09:06:53.535Z,98209.22
2022-08-07T09:09:57.012Z,98204.09
2022-08-07T09:12:31.906Z,98205.09
2022-08-07T09:16:23.066Z,98202.88
2022-08-07T09:18:36.775Z,98209.97
2022-08-07T09:22:10.279Z,98215.00
2022-08-07T09:25:14.761Z,98201.19
2022-08-07T09:30:01.317Z,98195.41
2022-08-07T09:31:20.644Z,98202.13
2022-08-07T09:34:11.118Z,98200.44
2022-08-07T09:37:03.311Z,98190.31
2022-08-07T09:39:55.124Z,98189.88
2022-08-07T09:42:41.318Z,98193.44
2022-08-07T09:47:25.742Z,98177.47
2022-08-07T09:50:01.119Z,98182.47
2022-08-07T09:52:33.503Z,98177.03
2022-08-07T09:56:03.176Z,98171.06
2022-08-07T09:59:01.457Z,98167.31
2022-08-07T10:01:52.325Z,98180.94
2022-08-07T10:04:53.034Z,98174.38
2022-08-07T10:07:52.906Z,98174.31
2022-08-07T10:11:07.691Z,98170.81
2022-08-07T10:14:00.410Z,98172.25
2022-08-07T10:16:56.390Z,98159.69
2022-08-07T10:19:52.790Z,98168.47
2022-08-07T10:22:43.178Z,98160.41
2022-08-07T10:25:43.177Z,98155.66
2022-08-07T10:28:49.677Z,98155.00
2022-08-07T10:32:36.438Z,98145.69
2022-08-07T10:38:48.217Z,98138.41
2022-08-07T10:41:52.166Z,98133.19
2022-08-07T10:57:06.689Z,98131.38
2022-08-07T11:00:04.140Z,98135.53
2022-08-07T11:02:55.408Z,98135.63
2022-08-07T11:05:48.639Z,98132.13
2022-08-07T11:08:39.021Z,98127.28
2022-08-07T11:11:51.781Z,98125.50
2022-08-07T11:15:00.288Z,98134.16
2022-08-07T11:17:43.440Z,98129.53
2022-08-07T11:20:24.623Z,98137.34
2022-08-07T11:23:02.854Z,98130.44
2022-08-07T11:25:48.198Z,98135.53
2022-08-07T11:28:33.839Z,98131.38
2022-08-07T11:31:11.623Z,98123.59
2022-08-07T11:34:04.031Z,98125.13
2022-08-07T11:36:42.180Z,98116.78
2022-08-07T11:39:59.865Z,98124.22
2022-08-07T11:42:59.876Z,98123.78
2022-08-07T11:45:53.666Z,98118.03
2022-08-07T11:48:36.204Z,98122.94
2022-08-07T11:51:46.642Z,98120.34
2022-08-07T11:54:40.970Z,98113.09
2022-08-07T11:57:59.387Z,98112.72
2022-08-07T12:01:05.305Z,98103.88
2022-08-07T12:03:53.685Z,98108.59
2022-08-07T12:07:20.385Z,98100.59
2022-08-07T12:09:58.746Z,98102.41
2022-08-07T12:12:38.189Z,98099.53
2022-08-07T12:15:35.664Z,98102.69
2022-08-07T12:18:16.093Z,98090.56
2022-08-07T12:21:02.044Z,98098.44
2022-08-07T12:24:04.797Z,98094.22
2022-08-07T12:26:40.526Z,98096.28
2022-08-07T12:29:37.686Z,98093.94
2022-08-07T12:33:02.246Z,98091.00
2022-08-07T12:35:48.727Z,98087.66
2022-08-07T12:38:38.491Z,98094.41
2022-08-07T12:41:11.509Z,98092.53
2022-08-07T12:44:03.734Z,98088.03
2022-08-07T12:47:07.416Z,98083.72
2022-08-07T12:49:53.033Z,98081.38
2022-08-07T12:52:36.782Z,98083.81
2022-08-07T12:55:41.288Z,98085.69
2022-08-07T12:58:20.170Z,98077.16
2022-08-07T13:01:07.762Z,98081.38
2022-08-07T13:04:04.675Z,98078.59
2022-08-07T13:08:12.826Z,98082.91
2022-08-07T13:10:52.325Z,98089.19
2022-08-07T13:13:50.227Z,98081.72
2022-08-07T13:17:02.566Z,98084.94
2022-08-07T13:20:00.789Z,98090.09
2022-08-07T13:22:38.367Z,98079.88
2022-08-07T13:25:24.318Z,98075.44
2022-08-07T13:28:12.393Z,98084.72
2022-08-07T13:30:48.973Z,98074.94
2022-08-07T13:34:34.509Z,98073.41
2022-08-07T13:36:25.917Z,98074.56
2022-08-07T13:39:28.593Z,98067.56
2022-08-07T13:42:10.153Z,98063.16
2022-08-07T13:44:38.908Z,98061.84
2022-08-07T13:47:09.840Z,98062.59
2022-08-07T13:50:33.009Z,98057.41
2022-08-07T13:52:40.930Z,98055.72
2022-08-07T13:55:19.608Z,98048.44
2022-08-07T13:58:28.149Z,98049.69
2022-08-07T14:01:09.030Z,98057.75
2022-08-07T14:04:05.280Z,98055.06
2022-08-07T14:06:37.157Z,98049.59
2022-08-07T14:09:07.387Z,98052.38
2022-08-07T14:11:53.157Z,98041.97
2022-08-07T14:14:31.537Z,98049.69
2022-08-07T14:17:32.010Z,98050.50
2022-08-07T14:20:41.712Z,98041.44
2022-08-07T14:22:48.919Z,98039.50
2022-08-07T14:25:16.931Z,98038.97
2022-08-07T14:28:10.642Z,98045.31
2022-08-07T14:30:37.531Z,98055.59
2022-08-07T14:33:08.466Z,98043.03
2022-08-07T14:35:45.308Z,98039.34
2022-08-07T14:38:31.292Z,98039.34
2022-08-07T14:41:04.227Z,98044.00
2022-08-07T14:43:59.067Z,98039.50
2022-08-07T14:46:31.040Z,98041.84
2022-08-07T14:49:17.651Z,98040.69
2022-08-07T14:52:04.280Z,98030.13
2022-08-07T14:54:42.137Z,98034.03
2022-08-07T14:57:19.580Z,98034.50
2022-08-07T15:00:04.473Z,98030.72
2022-08-07T15:02:34.638Z,98028.25
2022-08-07T15:05:03.421Z,98023.91
2022-08-07T15:10:26.369Z,98017.97
2022-08-07T15:12:58.409Z,98016.00
2022-08-07T15:18:46.622Z,98012.47
2022-08-07T15:21:58.820Z,98005.75
2022-08-07T15:27:15.423Z,98012.38
2022-08-07T15:32:39.184Z,97996.38
2022-08-07T15:35:12.532Z,97998.72
2022-08-07T15:38:06.195Z,97997.31
2022-08-07T15:40:34.133Z,98000.34
2022-08-07T15:43:10.576Z,97999.56
2022-08-07T15:46:05.752Z,97987.97
2022-08-07T15:49:11.613Z,97983.84
2022-08-07T15:54:39.477Z,97985.56
2022-08-07T15:57:27.770Z,97979.31
2022-08-07T16:00:00.007Z,97974.41
2022-08-07T16:02:46.893Z,97978.25
2022-08-07T16:05:17.528Z,97976.00
2022-08-07T16:08:30.425Z,97968.97
2022-08-07T16:10:57.760Z,97961.47
2022-08-07T16:13:58.855Z,97964.97
2022-08-07T16:16:57.212Z,97960.81
2022-08-07T16:19:58.841Z,97963.06
2022-08-07T16:22:37.949Z,97956.81
2022-08-07T16:25:53.946Z,97956.63
2022-08-07T16:30:06.977Z,97953.75
2022-08-07T16:32:33.063Z,97954.09
2022-08-07T16:35:58.614Z,97952.75
2022-08-07T16:39:00.556Z,97946.78
2022-08-07T16:42:06.833Z,97954.91
2022-08-07T16:45:15.121Z,97945.78
2022-08-07T16:48:13.433Z,97941.75
2022-08-07T17:14:33.238Z,97957.19
2022-08-07T17:17:06.404Z,97950.28
2022-08-07T17:20:01.832Z,97958.00
2022-08-07T17:22:54.897Z,97950.94
2022-08-07T17:25:51.896Z,97955.97
2022-08-07T17:28:19.366Z,97958.09
2022-08-07T17:31:44.059Z,97958.72
2022-08-07T17:35:32.853Z,97957.28
2022-08-07T17:38:33.482Z,97953.06
2022-08-07T17:42:04.984Z,97951.63
2022-08-07T17:44:42.814Z,97952.34
2022-08-07T17:47:08.449Z,97955.31
2022-08-07T17:49:45.388Z,97958.63
2022-08-07T17:52:33.813Z,97963.44
2022-08-07T17:55:54.134Z,97964.06
2022-08-07T17:58:08.475Z,97961.00
2022-08-07T18:00:48.542Z,97962.22
2022-08-07T18:04:04.518Z,97966.03
2022-08-07T18:06:38.928Z,97963.13
2022-08-07T18:09:16.093Z,97958.09
2022-08-07T18:12:19.722Z,97961.16
2022-08-07T18:15:13.808Z,97966.91
2022-08-07T18:18:45.045Z,97966.09
2022-08-07T18:21:02.364Z,97977.78
2022-08-07T18:23:59.609Z,97963.72
2022-08-07T18:27:12.275Z,97969.75
2022-08-07T18:30:31.518Z,97969.75
2022-08-07T18:33:34.758Z,97975.94
2022-08-07T18:36:33.089Z,97969.03
2022-08-07T18:40:09.006Z,97974.16
2022-08-07T18:42:29.637Z,97969.97
2022-08-07T18:45:43.303Z,97974.88
2022-08-07T18:50:05.463Z,97975.19
2022-08-07T19:02:17.389Z,97987.94
2022-08-07T19:10:31.780Z,97984.88
2022-08-07T19:13:23.212Z,97995.38
2022-08-07T19:17:05.085Z,98000.69
2022-08-07T19:19:17.501Z,97998.53
2022-08-07T19:21:56.275Z,98010.94
2022-08-07T19:24:56.956Z,98013.84
2022-08-07T19:28:56.595Z,98009.09
2022-08-07T19:31:00.840Z,98019.38
2022-08-07T19:33:08.237Z,98018.63
2022-08-07T19:35:42.475Z,98023.47
2022-08-07T19:38:17.837Z,98022.66
2022-08-07T19:40:50.384Z,98021.19
2022-08-07T19:43:50.096Z,98023.97
2022-08-07T19:46:26.659Z,98027.13
2022-08-07T19:49:15.171Z,98037.66
2022-08-07T19:51:53.162Z,98035.38
2022-08-07T19:54:30.030Z,98031.78
2022-08-07T19:58:04.472Z,98039.97
2022-08-07T20:00:08.951Z,98029.28
2022-08-07T20:03:05.123Z,98038.06
2022-08-07T20:06:03.551Z,98027.97
2022-08-07T20:08:36.668Z,98025.81
2022-08-07T20:11:23.072Z,98026.31
2022-08-07T20:14:04.665Z,98024.25
2022-08-07T20:16:36.918Z,98028.94
2022-08-07T20:19:11.098Z,98030.91
2022-08-07T20:21:47.133Z,98031.38
2022-08-07T20:24:22.968Z,98040.53
2022-08-07T20:26:54.352Z,98043.44
2022-08-07T20:29:47.818Z,98048.25
2022-08-07T20:32:22.881Z,98043.59
2022-08-07T20:34:56.511Z,98042.88
2022-08-07T20:37:59.299Z,98045.31
2022-08-07T20:40:32.250Z,98046.59
2022-08-07T20:43:14.478Z,98045.88
2022-08-07T20:46:27.149Z,98042.63
2022-08-07T20:48:58.036Z,98045.41
2022-08-07T20:51:31.454Z,98048.88
2022-08-07T20:54:11.967Z,98047.69
2022-08-07T20:56:48.209Z,98053.69
2022-08-07T21:00:05.318Z,98052.50
2022-08-07T21:02:35.006Z,98048.41
2022-08-07T21:05:16.586Z,98045.78
2022-08-07T21:07:49.664Z,98050.69
2022-08-07T21:10:29.560Z,98044.94
2022-08-07T21:13:00.782Z,98045.06
2022-08-07T21:15:48.013Z,98044.22
2022-08-07T21:18:27.888Z,98053.94
2022-08-07T21:21:00.536Z,98051.91
2022-08-07T21:24:22.118Z,98053.84
2022-08-07T21:27:01.639Z,98059.13
2022-08-07T21:29:53.404Z,98058.63
2022-08-07T21:32:43.006Z,98047.19
2022-08-07T21:35:34.625Z,98048.25
2022-08-07T21:38:27.715Z,98055.94
2022-08-07T21:41:00.370Z,98048.78
2022-08-07T21:43:55.919Z,98056.00
2022-08-07T21:46:36.463Z,98055.75
2022-08-07T21:49:40.700Z,98058.16
2022-08-07T21:53:10.657Z,98052.50
2022-08-07T21:56:36.208Z,98055.28
2022-08-07T21:59:21.429Z,98055.16
2022-08-07T22:02:07.796Z,98059.84
2022-08-07T22:04:53.967Z,98061.06
2022-08-07T22:07:31.908Z,98064.53
2022-08-07T22:10:20.855Z,98065.38
2022-08-07T22:12:55.467Z,98073.56
2022-08-07T22:16:43.246Z,98061.63
2022-08-07T22:19:30.118Z,98066.94
2022-08-07T22:22:28.663Z,98067.66
2022-08-07T22:25:11.096Z,98066.34
2022-08-07T22:28:19.759Z,98064.41
2022-08-07T22:30:53.008Z,98068.16
2022-08-07T22:33:50.957Z,98066.69
2022-08-07T22:36:58.912Z,98070.66
2022-08-07T22:39:54.015Z,98067.06
2022-08-07T22:42:29.348Z,98064.41
2022-08-07T22:46:04.472Z,98063.09
2022-08-07T22:48:54.994Z,98067.16
2022-08-07T22:51:51.881Z,98066.34
2022-08-07T22:55:17.305Z,98069.34
2022-08-07T22:58:07.950Z,98060.94
2022-08-07T23:00:46.118Z,98057.31
2022-08-07T23:03:57.929Z,98073.06
2022-08-07T23:06:51.546Z,98068.84
2022-08-07T23:10:03.961Z,98070.19
2022-08-07T23:13:04.858Z,98074.28
2022-08-07T23:16:08.746Z,98069.91
2022-08-07T23:19:38.724Z,98071.34
2022-08-07T23:22:52.277Z,98080.97
2022-08-07T23:25:41.579Z,98071.34
2022-08-07T23:28:54.395Z,98074.81
2022-08-07T23:34:21.411Z,98071.09
2022-08-07T23:35:02.351Z,98076.06
2022-08-07T23:38:36.936Z,98073.41
2022-08-07T23:41:47.419Z,98078.38
2022-08-07T23:44:57.957Z,98076.16
2022-08-07T23:48:02.840Z,98079.66
2022-08-07T23:50:38.076Z,98075.94
2022-08-07T23:53:49.724Z,98074.84
